Time;durP1;ratioP1;P1;durP2;ratioP2;P2;SDS_P1;SDS_P2;PMS_P1;PMS_P2;Temp;Humidity;BMP_temperature;BMP_pressure;BME280_temperature;BME280_humidity;BME280_pressure;Samples;Min_cycle;Max_cycle;Signal;HPM_P1;HPM_P2
2023/07/16 00:00:01;;;;;;;6.07;2.40;;;19.30;1.00;;;;;;5056218;28;20040;-68
2023/07/16 00:02:26;;;;;;;3.72;2.10;;;19.40;1.00;;;;;;5056064;28;20126;-67
2023/07/16 00:04:52;;;;;;;5.78;2.47;;;19.30;1.00;;;;;;5055816;28;20024;-67
2023/07/16 00:07:17;;;;;;;3.10;2.40;;;19.20;1.00;;;;;;5055777;28;20471;-67
2023/07/16 00:09:44;;;;;;;4.55;2.75;;;19.20;1.00;;;;;;5055911;28;20067;-67
2023/07/16 00:12:10;;;;;;;3.63;2.17;;;19.10;1.00;;;;;;5055581;28;20432;-67
2023/07/16 00:14:35;;;;;;;6.53;2.47;;;19.20;1.00;;;;;;5055777;28;20167;-67
2023/07/16 00:17:01;;;;;;;6.88;2.70;;;19.20;1.00;;;;;;5055691;28;20170;-67
2023/07/16 00:19:26;;;;;;;4.05;2.15;;;19.10;1.00;;;;;;5055276;28;20123;-67
2023/07/16 00:21:52;;;;;;;3.80;2.60;;;19.10;1.00;;;;;;5055654;28;20445;-67
2023/07/16 00:24:17;;;;;;;6.07;2.80;;;19.10;1.00;;;;;;5055480;28;20025;-67
2023/07/16 00:26:43;;;;;;;5.07;2.67;;;19.10;1.00;;;;;;5055560;28;20025;-67
2023/07/16 00:29:09;;;;;;;5.00;2.42;;;19.00;1.00;;;;;;5055524;28;20067;-67
2023/07/16 00:31:34;;;;;;;6.45;2.67;;;18.90;1.00;;;;;;5055549;28;20127;-67
2023/07/16 00:34:00;;;;;;;6.07;3.00;;;18.90;1.00;;;;;;5055426;28;20541;-67
2023/07/16 00:36:25;;;;;;;4.78;3.03;;;18.90;1.00;;;;;;5054931;28;20120;-68
2023/07/16 00:38:51;;;;;;;4.40;2.47;;;18.90;1.00;;;;;;5055331;28;20036;-67
2023/07/16 00:41:16;;;;;;;5.40;3.10;;;18.80;1.00;;;;;;5055177;28;20025;-67
2023/07/16 00:43:42;;;;;;;8.80;3.30;;;18.80;1.00;;;;;;5055328;28;20040;-67
2023/07/16 00:46:08;;;;;;;5.03;2.95;;;18.80;1.00;;;;;;5054836;28;20025;-67
2023/07/16 00:48:34;;;;;;;4.80;2.97;;;18.70;8.10;;;;;;5054895;28;20025;-67
2023/07/16 00:51:02;;;;;;;4.40;2.78;;;18.70;12.70;;;;;;5055109;28;20043;-67
2023/07/16 00:53:27;;;;;;;6.53;2.63;;;18.70;14.70;;;;;;5054863;28;20498;-67
2023/07/16 00:55:53;;;;;;;5.22;2.85;;;18.80;16.20;;;;;;5055059;28;20037;-67
2023/07/16 00:58:18;;;;;;;7.60;3.00;;;18.70;20.60;;;;;;5054536;28;20566;-67
2023/07/16 01:00:44;;;;;;;5.95;3.20;;;18.80;18.50;;;;;;5054945;28;20043;-67
2023/07/16 01:03:12;;;;;;;5.10;2.90;;;18.80;20.60;;;;;;5054938;28;20167;-67
2023/07/16 01:06:04;;;;;;;7.13;2.88;;;18.70;26.50;;;;;;5054659;28;20036;-67
2023/07/16 01:08:35;;;;;;;5.70;2.90;;;18.70;26.60;;;;;;5054755;28;20399;-67
2023/07/16 01:11:01;;;;;;;6.75;3.05;;;18.70;27.90;;;;;;5054745;28;20036;-67
2023/07/16 01:13:27;;;;;;;6.65;2.97;;;18.60;33.50;;;;;;5054495;28;20029;-68
2023/07/16 01:15:53;;;;;;;4.70;2.75;;;18.60;43.90;;;;;;5054243;28;20510;-67
2023/07/16 01:18:19;;;;;;;5.55;2.78;;;18.60;44.90;;;;;;5054306;28;20087;-67
2023/07/16 01:20:44;;;;;;;6.85;2.88;;;18.60;44.50;;;;;;5054518;28;20021;-68
2023/07/16 01:23:37;;;;;;;9.27;3.17;;;18.50;48.30;;;;;;5054425;28;20079;-67
2023/07/16 01:26:12;;;;;;;6.95;3.10;;;18.50;54.90;;;;;;5054295;28;20029;-67
2023/07/16 01:28:54;;;;;;;5.90;2.80;;;18.50;54.60;;;;;;5054117;28;20020;-68
2023/07/16 01:31:22;;;;;;;6.05;2.78;;;18.50;58.00;;;;;;5054403;28;20021;-67
2023/07/16 01:33:49;;;;;;;5.60;3.20;;;18.40;62.00;;;;;;5054104;28;20033;-67
2023/07/16 01:36:17;;;;;;;5.68;2.90;;;18.40;64.40;;;;;;5054024;28;20120;-67
2023/07/16 01:38:42;;;;;;;6.28;2.80;;;18.40;68.50;;;;;;5053826;28;20033;-67
2023/07/16 01:41:08;;;;;;;6.75;3.05;;;18.40;70.60;;;;;;5054045;28;20390;-68
2023/07/16 01:43:33;;;;;;;4.95;2.78;;;18.40;65.80;;;;;;5053847;28;20027;-67
2023/07/16 01:45:59;;;;;;;4.88;2.90;;;18.40;71.40;;;;;;5053849;28;20029;-67
2023/07/16 01:48:30;;;;;;;4.90;2.47;;;18.40;71.00;;;;;;5053941;28;20055;-67
2023/07/16 01:50:56;;;;;;;5.03;2.72;;;18.30;74.60;;;;;;5053929;28;20029;-67
2023/07/16 01:53:22;;;;;;;4.70;2.75;;;18.40;76.10;;;;;;5053845;28;20367;-67
2023/07/16 01:55:47;;;;;;;7.25;3.08;;;18.30;82.50;;;;;;5053927;28;20110;-68
2023/07/16 01:58:13;;;;;;;5.18;2.70;;;18.30;86.80;;;;;;5053644;28;20033;-67
2023/07/16 02:00:39;;;;;;;5.78;3.05;;;18.30;90.80;;;;;;5053949;28;20495;-68
2023/07/16 02:03:04;;;;;;;6.00;3.13;;;18.20;93.90;;;;;;5053743;28;20028;-67
2023/07/16 02:05:30;;;;;;;4.88;2.90;;;18.20;96.10;;;;;;5053747;28;20021;-68
2023/07/16 02:07:55;;;;;;;6.95;3.58;;;18.20;99.50;;;;;;5053214;28;20029;-67
2023/07/16 02:10:21;;;;;;;8.82;3.95;;;18.10;99.90;;;;;;5053286;28;20027;-67
2023/07/16 02:12:46;;;;;;;4.82;3.42;;;18.10;99.90;;;;;;5053596;28;20044;-67
2023/07/16 02:15:12;;;;;;;6.65;3.70;;;18.10;99.90;;;;;;5053271;28;20437;-67
2023/07/16 02:17:37;;;;;;;7.05;3.72;;;18.10;99.90;;;;;;5053206;28;20029;-67
2023/07/16 02:20:05;;;;;;;9.52;4.03;;;18.00;99.90;;;;;;5053681;28;20029;-67
2023/07/16 02:22:31;;;;;;;7.13;4.10;;;18.00;99.90;;;;;;5053311;28;20032;-67
2023/07/16 02:24:56;;;;;;;6.20;3.25;;;18.00;99.90;;;;;;5053285;28;20473;-68
2023/07/16 02:27:22;;;;;;;8.23;3.55;;;17.90;99.90;;;;;;5053400;28;20074;-67
2023/07/16 02:29:47;;;;;;;9.23;3.72;;;17.90;99.90;;;;;;5053288;28;20382;-67
2023/07/16 02:32:13;;;;;;;7.20;3.60;;;17.90;99.90;;;;;;5053199;28;20094;-67
2023/07/16 02:34:38;;;;;;;7.15;3.50;;;17.90;99.90;;;;;;5053246;28;20372;-68
2023/07/16 02:37:04;;;;;;;7.78;4.05;;;18.00;99.90;;;;;;5053078;28;20041;-67
2023/07/16 02:39:29;;;;;;;8.10;3.30;;;18.00;99.90;;;;;;5052908;28;20052;-68
2023/07/16 02:41:55;;;;;;;6.40;3.40;;;18.00;99.90;;;;;;5053289;28;20025;-68
2023/07/16 02:44:20;;;;;;;7.18;3.15;;;17.90;99.90;;;;;;5053116;28;20477;-68
2023/07/16 02:46:46;;;;;;;9.68;3.30;;;17.90;99.90;;;;;;5053185;28;20033;-68
2023/07/16 02:49:11;;;;;;;8.32;3.13;;;17.90;99.90;;;;;;5053109;28;20090;-67
2023/07/16 02:51:37;;;;;;;8.20;3.10;;;17.90;93.10;;;;;;5053150;28;20025;-67
2023/07/16 02:54:02;;;;;;;6.78;3.25;;;18.10;76.20;;;;;;5053181;28;20047;-67
2023/07/16 02:56:28;;;;;;;8.80;3.10;;;18.10;74.10;;;;;;5052971;28;20033;-67
2023/07/16 02:58:53;;;;;;;7.07;3.10;;;18.10;69.90;;;;;;5052862;28;20056;-67
2023/07/16 03:01:19;;;;;;;9.75;2.75;;;18.00;74.40;;;;;;5052942;28;20029;-67
2023/07/16 03:03:44;;;;;;;6.93;2.88;;;18.00;74.20;;;;;;5052758;28;20025;-67
2023/07/16 03:06:10;;;;;;;6.57;3.13;;;18.00;69.30;;;;;;5052752;28;20028;-68
2023/07/16 03:08:36;;;;;;;4.80;2.75;;;17.90;70.50;;;;;;5053167;28;20494;-68
2023/07/16 03:11:01;;;;;;;9.45;3.00;;;17.90;75.10;;;;;;5052830;28;20126;-67
2023/07/16 03:13:27;;;;;;;8.90;3.28;;;17.90;73.90;;;;;;5052958;28;20417;-67
2023/07/16 03:15:52;;;;;;;6.47;2.78;;;17.80;79.70;;;;;;5052781;28;20036;-67
2023/07/16 03:18:19;;;;;;;5.75;2.85;;;17.90;75.80;;;;;;5052767;28;20153;-67
2023/07/16 03:20:44;;;;;;;9.68;2.85;;;17.90;76.00;;;;;;5056109;28;20409;-67
2023/07/16 03:23:10;;;;;;;6.22;2.70;;;17.90;73.00;;;;;;5056719;28;20028;-67
2023/07/16 03:25:36;;;;;;;6.35;2.67;;;17.90;76.10;;;;;;5056798;28;20032;-67
2023/07/16 03:28:01;;;;;;;5.00;2.45;;;17.90;80.30;;;;;;5056676;28;20493;-68
2023/07/16 03:30:27;;;;;;;6.53;2.85;;;17.90;83.10;;;;;;5056653;28;20025;-67
2023/07/16 03:32:52;;;;;;;6.68;2.90;;;17.90;87.00;;;;;;5056535;28;20068;-67
2023/07/16 03:35:18;;;;;;;8.38;3.20;;;17.90;89.90;;;;;;5056593;28;20084;-67
2023/07/16 03:37:44;;;;;;;6.38;3.47;;;17.90;92.30;;;;;;5056214;28;20053;-67
2023/07/16 03:40:15;;;;;;;9.55;2.63;;;17.90;92.10;;;;;;5056391;28;20029;-68
2023/07/16 03:42:40;;;;;;;9.52;3.33;;;17.90;92.50;;;;;;5056448;28;20021;-68
2023/07/16 03:45:07;;;;;;;6.32;3.42;;;17.80;93.60;;;;;;5056343;28;20037;-67
2023/07/16 03:47:32;;;;;;;4.95;3.15;;;17.80;94.20;;;;;;5056345;28;20025;-67
2023/07/16 03:49:58;;;;;;;9.70;3.17;;;17.80;92.10;;;;;;5056211;28;20493;-67
2023/07/16 03:52:24;;;;;;;4.07;2.72;;;17.90;90.70;;;;;;5056227;28;20028;-68
2023/07/16 03:54:50;;;;;;;7.10;3.40;;;17.90;90.50;;;;;;5056098;28;20025;-67
2023/07/16 03:57:16;;;;;;;6.75;2.80;;;17.90;90.20;;;;;;5055920;28;20036;-67
2023/07/16 03:59:42;;;;;;;6.68;2.78;;;17.90;82.90;;;;;;5056183;28;20084;-67
2023/07/16 04:02:08;;;;;;;7.10;2.75;;;18.00;75.30;;;;;;5056270;28;20367;-67
2023/07/16 04:04:34;;;;;;;10.02;3.22;;;18.10;71.00;;;;;;5055998;28;20024;-67
2023/07/16 04:06:59;;;;;;;9.52;3.30;;;18.10;68.70;;;;;;5055791;28;20025;-67
2023/07/16 04:09:25;;;;;;;10.45;2.67;;;18.10;70.70;;;;;;5055717;28;20036;-67
2023/07/16 04:11:50;;;;;;;7.45;2.67;;;18.00;66.30;;;;;;5055898;28;20036;-67
2023/07/16 04:14:16;;;;;;;6.25;3.17;;;18.10;59.00;;;;;;5055655;28;20451;-67
2023/07/16 04:16:42;;;;;;;5.50;2.75;;;18.20;51.10;;;;;;5055813;28;20032;-66
2023/07/16 04:19:09;;;;;;;6.05;3.10;;;18.20;47.70;;;;;;5055335;28;20061;-67
2023/07/16 04:21:35;;;;;;;6.90;2.75;;;18.20;48.00;;;;;;5055482;28;20029;-67
2023/07/16 04:24:02;;;;;;;5.53;2.70;;;18.20;45.30;;;;;;5055632;28;20036;-69
2023/07/16 04:26:28;;;;;;;7.47;2.85;;;18.20;34.90;;;;;;5055613;28;20025;-67
2023/07/16 04:28:53;;;;;;;7.75;2.97;;;18.20;35.20;;;;;;5055549;28;20033;-67
2023/07/16 04:31:19;;;;;;;6.28;2.85;;;18.30;27.90;;;;;;5055090;28;20037;-67
2023/07/16 04:33:44;;;;;;;6.85;2.83;;;18.40;17.70;;;;;;5055482;28;20044;-67
2023/07/16 04:36:10;;;;;;;8.40;3.25;;;18.40;1.00;;;;;;5055340;28;20135;-67
2023/07/16 04:38:35;;;;;;;5.05;2.63;;;18.50;1.00;;;;;;5055271;28;20043;-67
2023/07/16 04:41:01;;;;;;;9.68;3.05;;;18.60;1.00;;;;;;5055334;28;20471;-67
2023/07/16 04:43:26;;;;;;;6.45;2.50;;;18.80;1.00;;;;;;5055335;28;20021;-67
2023/07/16 04:45:52;;;;;;;10.07;2.83;;;19.00;1.00;;;;;;5055103;28;20013;-67
2023/07/16 04:48:17;;;;;;;5.50;2.67;;;19.30;1.00;;;;;;5055248;28;20033;-67
2023/07/16 04:50:43;;;;;;;6.63;2.78;;;19.80;99.90;;;;;;5055185;28;20028;-67
2023/07/16 04:53:09;;;;;;;7.05;2.95;;;19.90;99.90;;;;;;5055033;28;20040;-67
2023/07/16 04:55:37;;;;;;;9.23;3.13;;;20.00;99.90;;;;;;5054944;28;20025;-67
2023/07/16 04:58:02;;;;;;;6.75;3.22;;;20.00;99.90;;;;;;5054816;28;20072;-67
2023/07/16 05:00:28;;;;;;;7.22;3.55;;;20.00;1.00;;;;;;5054586;28;20065;-67
2023/07/16 05:02:54;;;;;;;7.97;2.95;;;20.30;1.00;;;;;;5054963;28;20036;-67
2023/07/16 05:05:19;;;;;;;6.88;3.10;;;20.20;99.90;;;;;;5054739;28;20028;-67
2023/07/16 05:07:45;;;;;;;6.15;3.15;;;20.60;99.90;;;;;;5054663;28;20487;-67
2023/07/16 05:10:10;;;;;;;6.63;3.25;;;20.50;21.10;;;;;;5054712;28;20040;-68
2023/07/16 05:12:36;;;;;;;8.25;3.13;;;20.40;99.90;;;;;;5054793;28;20087;-67
2023/07/16 05:15:02;;;;;;;8.65;3.20;;;19.90;65.10;;;;;;5054715;28;20029;-67
2023/07/16 05:17:27;;;;;;;7.40;3.13;;;19.70;1.00;;;;;;5054392;28;20435;-67
2023/07/16 05:19:53;;;;;;;10.20;3.10;;;19.60;4.40;;;;;;5054430;28;20033;-67
2023/07/16 05:22:18;;;;;;;10.15;3.00;;;19.40;99.90;;;;;;5054267;28;20021;-67
2023/07/16 05:24:44;;;;;;;8.85;2.97;;;19.30;99.90;;;;;;5054558;28;20033;-67
2023/07/16 05:27:10;;;;;;;11.35;3.25;;;19.50;98.60;;;;;;5054365;28;20025;-67
2023/07/16 05:29:35;;;;;;;5.47;3.00;;;19.70;1.00;;;;;;5054214;28;20060;-67
2023/07/16 05:32:01;;;;;;;5.75;3.15;;;20.00;99.90;;;;;;5054410;28;20044;-67
2023/07/16 05:34:26;;;;;;;9.20;3.88;;;20.10;1.00;;;;;;5054226;28;20407;-67
2023/07/16 05:36:54;;;;;;;7.68;3.05;;;20.40;27.60;;;;;;5053958;28;20048;-67
2023/07/16 05:39:21;;;;;;;11.40;3.67;;;20.90;99.90;;;;;;5054144;28;20584;-67
2023/07/16 05:41:46;;;;;;;11.48;4.07;;;21.20;6.30;;;;;;5053372;28;20386;-68
2023/07/16 05:44:12;;;;;;;7.05;3.00;;;20.80;99.90;;;;;;5054146;28;20021;-67
2023/07/16 05:46:37;;;;;;;6.65;2.75;;;20.60;99.90;;;;;;5054062;28;20031;-67
2023/07/16 05:49:03;;;;;;;10.40;3.55;;;20.60;99.90;;;;;;5054080;28;20033;-67
2023/07/16 05:51:28;;;;;;;12.52;3.58;;;20.70;48.60;;;;;;5053820;28;20021;-67
2023/07/16 05:53:54;;;;;;;9.57;3.35;;;21.10;99.90;;;;;;5053985;28;20029;-67
2023/07/16 05:56:19;;;;;;;10.70;3.72;;;21.10;99.90;;;;;;5053939;28;20021;-67
2023/07/16 05:58:45;;;;;;;8.65;3.83;;;20.70;99.90;;;;;;5053757;28;20470;-67
2023/07/16 06:01:10;;;;;;;8.50;3.97;;;20.90;99.90;;;;;;5053556;28;20064;-67
2023/07/16 06:03:36;;;;;;;11.25;3.65;;;21.10;47.10;;;;;;5053831;28;20021;-67
2023/07/16 06:06:01;;;;;;;8.68;4.38;;;21.10;1.00;;;;;;5053716;28;20025;-67
2023/07/16 06:08:27;;;;;;;9.95;4.00;;;21.40;99.90;;;;;;5053788;28;20025;-67
2023/07/16 06:10:52;;;;;;;9.20;4.38;;;21.40;99.90;;;;;;5053561;28;20053;-67
2023/07/16 06:13:18;;;;;;;7.40;3.90;;;21.80;99.90;;;;;;5053760;28;20487;-68
2023/07/16 06:15:43;;;;;;;10.00;3.97;;;22.20;86.90;;;;;;5053456;28;20394;-67
2023/07/16 06:18:09;;;;;;;8.23;4.00;;;22.60;1.00;;;;;;5053139;28;20040;-68
2023/07/16 06:20:35;;;;;;;10.23;4.05;;;22.30;1.00;;;;;;5053312;28;20494;-67
2023/07/16 06:23:01;;;;;;;11.02;4.15;;;21.90;1.00;;;;;;5053095;28;20024;-67
2023/07/16 06:25:26;;;;;;;8.23;3.63;;;21.80;1.00;;;;;;5053034;28;20021;-68
2023/07/16 06:27:52;;;;;;;9.65;3.95;;;21.40;41.40;;;;;;5053303;28;20040;-68
2023/07/16 06:30:17;;;;;;;11.02;3.75;;;22.50;1.00;;;;;;5053374;28;20115;-68
2023/07/16 06:32:43;;;;;;;7.43;3.42;;;22.60;1.00;;;;;;5053499;28;20128;-67
2023/07/16 06:35:09;;;;;;;10.88;3.55;;;22.50;1.00;;;;;;5053314;28;20036;-67
2023/07/16 06:37:34;;;;;;;10.65;3.60;;;21.60;99.90;;;;;;5052874;28;20055;-67
2023/07/16 06:40:00;;;;;;;9.13;4.18;;;21.40;99.90;;;;;;5053317;28;20115;-67
2023/07/16 06:42:25;;;;;;;12.80;4.10;;;20.90;99.90;;;;;;5053278;28;20157;-66
2023/07/16 06:44:51;;;;;;;8.85;3.58;;;20.80;99.90;;;;;;5053321;28;20017;-67
2023/07/16 06:47:16;;;;;;;12.15;4.20;;;21.20;99.90;;;;;;5053267;28;20418;-67
2023/07/16 06:49:42;;;;;;;10.90;4.82;;;21.60;1.00;;;;;;5053144;28;20025;-67
2023/07/16 06:52:08;;;;;;;10.25;4.45;;;21.30;1.00;;;;;;5053140;28;20063;-67
2023/07/16 06:54:34;;;;;;;16.60;4.97;;;21.20;1.00;;;;;;5056040;28;20087;-67
2023/07/16 06:57:00;;;;;;;9.15;4.57;;;21.50;1.00;;;;;;5057028;28;20116;-67
2023/07/16 06:59:25;;;;;;;13.48;4.72;;;22.00;1.00;;;;;;5057052;28;20060;-67
2023/07/16 07:01:51;;;;;;;10.95;4.90;;;22.20;99.90;;;;;;5057045;28;20451;-67
2023/07/16 07:04:16;;;;;;;9.52;4.20;;;22.40;99.90;;;;;;5057035;28;20021;-67
2023/07/16 07:06:42;;;;;;;10.73;4.65;;;22.50;99.90;;;;;;5057038;28;20449;-68
2023/07/16 07:09:07;;;;;;;7.88;4.88;;;22.40;99.90;;;;;;5057048;28;20069;-68
2023/07/16 07:11:33;;;;;;;10.20;4.32;;;22.40;99.90;;;;;;5057022;28;20115;-67
2023/07/16 07:13:58;;;;;;;9.88;4.75;;;22.20;99.90;;;;;;5057010;28;20036;-68
2023/07/16 07:16:24;;;;;;;10.57;4.88;;;22.60;99.90;;;;;;5056776;28;20491;-67
2023/07/16 07:18:49;;;;;;;11.05;4.80;;;23.10;99.90;;;;;;5056640;28;20112;-68
2023/07/16 07:21:15;;;;;;;9.43;4.90;;;23.00;99.90;;;;;;5056772;28;20494;-68
2023/07/16 07:23:40;;;;;;;10.80;5.10;;;22.70;99.90;;;;;;5056788;28;20028;-67
2023/07/16 07:26:06;;;;;;;10.93;5.07;;;22.60;99.90;;;;;;5056748;28;20070;-67
2023/07/16 07:28:31;;;;;;;10.27;4.97;;;22.50;99.90;;;;;;5056552;28;20103;-68
2023/07/16 07:30:57;;;;;;;10.20;5.13;;;23.40;99.90;;;;;;5056496;28;20109;-68
2023/07/16 07:33:22;;;;;;;14.70;5.10;;;23.40;88.90;;;;;;5056397;28;20036;-67
2023/07/16 07:35:48;;;;;;;10.68;5.20;;;23.10;99.90;;;;;;5056656;28;20033;-67
2023/07/16 07:38:13;;;;;;;10.40;4.80;;;22.80;99.90;;;;;;5056039;28;20041;-68
2023/07/16 07:40:42;;;;;;;10.38;4.53;;;22.70;99.90;;;;;;5056547;28;20043;-69
2023/07/16 07:43:07;;;;;;;9.35;4.60;;;23.30;99.90;;;;;;5056409;28;20029;-67
2023/07/16 07:45:33;;;;;;;9.45;5.43;;;23.60;99.90;;;;;;5056455;28;20044;-67
2023/07/16 07:47:58;;;;;;;7.68;4.78;;;23.70;99.90;;;;;;5056365;28;20037;-68
2023/07/16 07:50:25;;;;;;;8.50;5.20;;;23.80;95.40;;;;;;5056128;28;20033;-67
2023/07/16 07:52:51;;;;;;;7.88;4.60;;;22.70;99.90;;;;;;5055931;28;20031;-67
2023/07/16 07:55:16;;;;;;;9.93;5.30;;;23.00;99.90;;;;;;5056025;28;20112;-67
2023/07/16 07:57:42;;;;;;;12.52;5.28;;;22.80;99.90;;;;;;5056174;28;20029;-68
2023/07/16 08:00:11;;;;;;;10.15;5.13;;;23.10;99.90;;;;;;5055912;28;20025;-67
2023/07/16 08:02:36;;;;;;;11.77;4.95;;;23.50;99.90;;;;;;5055794;28;20032;-67
2023/07/16 08:05:02;;;;;;;7.90;4.45;;;23.80;99.90;;;;;;5055131;28;20021;-67
2023/07/16 08:07:28;;;;;;;8.15;4.97;;;23.20;91.00;;;;;;5055800;28;20036;-68
2023/07/16 08:09:53;;;;;;;9.60;5.00;;;22.70;99.90;;;;;;5055979;28;20029;-67
2023/07/16 08:12:19;;;;;;;8.05;4.60;;;22.70;99.90;;;;;;5055790;28;20024;-68
2023/07/16 08:14:45;;;;;;;8.43;4.75;;;22.90;99.90;;;;;;5055778;28;20076;-66
2023/07/16 08:17:10;;;;;;;10.43;5.22;;;23.40;99.90;;;;;;5055693;28;20092;-68
2023/07/16 08:19:36;;;;;;;12.70;5.05;;;22.70;99.90;;;;;;5055785;28;20107;-68
2023/07/16 08:22:01;;;;;;;9.43;5.35;;;22.70;99.90;;;;;;5055578;28;20029;-68
2023/07/16 08:24:27;;;;;;;11.95;5.40;;;22.70;99.90;;;;;;5055727;28;20029;-68
2023/07/16 08:26:52;;;;;;;11.85;5.18;;;23.10;99.90;;;;;;5055658;28;20033;-68
2023/07/16 08:29:18;;;;;;;7.00;4.72;;;23.10;99.90;;;;;;5055537;28;20053;-68
2023/07/16 08:31:43;;;;;;;9.13;5.05;;;23.70;99.90;;;;;;5055502;28;20497;-69
2023/07/16 08:34:09;;;;;;;11.45;4.97;;;24.20;4.60;;;;;;5055362;28;20079;-66
2023/07/16 08:36:36;;;;;;;8.77;4.82;;;24.40;1.00;;;;;;5055178;28;20052;-67
2023/07/16 08:39:01;;;;;;;9.02;4.43;;;24.30;8.70;;;;;;5055051;28;20025;-67
2023/07/16 08:41:28;;;;;;;8.48;4.38;;;25.10;1.00;;;;;;5055156;28;20048;-66
2023/07/16 08:43:54;;;;;;;7.28;4.25;;;24.20;1.00;;;;;;5055189;28;20044;-67
2023/07/16 08:46:19;;;;;;;10.27;5.05;;;24.00;20.10;;;;;;5055342;28;20025;-68
2023/07/16 08:48:45;;;;;;;9.38;4.60;;;23.90;7.40;;;;;;5055041;28;20036;-67
2023/07/16 08:51:14;;;;;;;8.63;4.63;;;23.70;1.00;;;;;;5055038;28;20082;-68
2023/07/16 08:53:40;;;;;;;7.28;4.25;;;23.50;1.00;;;;;;5055220;28;20039;-68
2023/07/16 08:56:06;;;;;;;9.48;4.72;;;23.80;1.00;;;;;;5054891;28;20108;-68
2023/07/16 08:58:32;;;;;;;12.45;5.45;;;23.50;1.00;;;;;;5054598;28;20024;-68
2023/07/16 09:01:00;;;;;;;9.38;4.93;;;23.10;1.00;;;;;;5054976;28;20410;-68
2023/07/16 09:03:26;;;;;;;9.63;4.35;;;23.30;1.00;;;;;;5054716;28;20025;-68
2023/07/16 09:05:53;;;;;;;7.65;4.53;;;23.70;1.00;;;;;;5054785;28;20028;-68
2023/07/16 09:08:18;;;;;;;8.15;5.05;;;24.10;1.00;;;;;;5054588;28;20497;-68
2023/07/16 09:10:44;;;;;;;11.23;4.40;;;24.00;1.00;;;;;;5054930;28;20116;-68
2023/07/16 09:13:10;;;;;;;6.85;4.68;;;24.20;1.00;;;;;;5054648;28;20031;-68
2023/07/16 09:15:35;;;;;;;10.70;4.80;;;24.00;1.00;;;;;;5054698;28;20035;-68
2023/07/16 09:18:01;;;;;;;11.75;4.88;;;24.10;1.00;;;;;;5053196;28;20025;-68
2023/07/16 09:20:30;;;;;;;9.88;4.82;;;24.60;1.00;;;;;;5054585;28;20048;-68
2023/07/16 09:22:56;;;;;;;9.38;4.50;;;24.10;15.10;;;;;;5054520;28;20505;-68
2023/07/16 09:25:30;;;;;;;14.55;4.70;;;23.10;6.20;;;;;;5054585;28;20082;-68
2023/07/16 09:27:57;;;;;;;9.10;4.50;;;23.90;45.10;;;;;;5054338;28;20395;-68
2023/07/16 09:30:23;;;;;;;8.63;4.70;;;24.30;63.20;;;;;;5054334;28;20095;-68
2023/07/16 09:32:48;;;;;;;10.07;5.18;;;24.00;1.00;;;;;;5054457;28;20024;-68
2023/07/16 09:35:15;;;;;;;7.35;4.40;;;23.90;1.00;;;;;;5054055;28;20039;-68
2023/07/16 09:37:42;;;;;;;8.52;4.75;;;24.00;1.00;;;;;;5054055;28;20045;-68
2023/07/16 09:40:09;;;;;;;8.75;4.35;;;24.30;1.00;;;;;;5054061;28;20049;-68
2023/07/16 09:42:38;;;;;;;10.05;4.95;;;24.30;1.00;;;;;;5054123;28;20112;-68
2023/07/16 09:45:07;;;;;;;6.85;4.43;;;24.00;1.00;;;;;;5053922;28;20036;-68
2023/07/16 09:47:33;;;;;;;11.05;4.70;;;24.20;1.00;;;;;;5053904;28;20433;-68
2023/07/16 09:49:58;;;;;;;7.97;4.57;;;23.60;1.00;;;;;;5053762;28;20036;-68
2023/07/16 09:52:27;;;;;;;8.85;4.85;;;23.20;1.00;;;;;;5054071;28;20068;-67
2023/07/16 09:54:55;;;;;;;7.68;4.55;;;22.80;1.00;;;;;;5053820;28;20032;-67
2023/07/16 09:57:23;;;;;;;9.82;4.82;;;23.80;1.00;;;;;;5053865;28;20024;-68
2023/07/16 09:59:51;;;;;;;7.30;4.22;;;24.60;99.90;;;;;;5053915;28;20025;-68
2023/07/16 10:02:17;;;;;;;9.25;4.85;;;24.20;1.00;;;;;;5053825;28;20531;-68
2023/07/16 10:04:43;;;;;;;12.60;4.70;;;24.90;1.00;;;;;;5053927;28;20032;-68
2023/07/16 10:07:26;;;;;;;10.82;4.70;;;25.80;1.00;;;;;;5053753;28;20037;-68
2023/07/16 10:09:56;;;;;;;8.23;4.97;;;24.60;1.00;;;;;;5053782;28;20051;-68
2023/07/16 10:12:22;;;;;;;9.43;5.00;;;24.60;1.00;;;;;;5053497;28;20086;-68
2023/07/16 10:14:50;;;;;;;7.25;4.30;;;25.00;1.00;;;;;;5053740;28;20078;-68
2023/07/16 10:17:20;;;;;;;6.35;3.90;;;25.50;1.00;;;;;;5053498;28;20395;-67
2023/07/16 10:20:10;;;;;;;8.70;4.82;;;24.40;99.90;;;;;;5053558;28;20078;-68
2023/07/16 10:22:39;;;;;;;7.43;4.03;;;25.00;52.60;;;;;;5053015;28;20029;-68
2023/07/16 10:25:23;;;;;;;6.75;3.95;;;25.70;1.00;;;;;;5053469;28;20079;-68
2023/07/16 10:27:51;;;;;;;6.68;4.20;;;24.90;1.00;;;;;;5053080;28;20029;-68
2023/07/16 10:30:17;;;;;;;7.68;3.75;;;24.40;1.00;;;;;;5053468;28;20475;-67
2023/07/16 10:32:43;;;;;;;6.95;4.03;;;24.90;99.90;;;;;;5053195;28;20532;-68
2023/07/16 10:35:10;;;;;;;9.73;4.43;;;25.30;5.00;;;;;;5053298;28;20044;-67
2023/07/16 10:37:35;;;;;;;5.35;3.80;;;24.80;1.00;;;;;;5052642;28;20044;-68
2023/07/16 10:40:03;;;;;;;7.47;3.97;;;24.80;99.90;;;;;;5053334;28;20090;-67
2023/07/16 10:42:29;;;;;;;5.97;4.10;;;24.70;99.90;;;;;;5053038;28;20033;-68
2023/07/16 10:44:58;;;;;;;6.82;4.22;;;24.10;99.90;;;;;;5053297;28;20462;-67
2023/07/16 10:47:47;;;;;;;7.68;4.53;;;25.10;99.90;;;;;;5053207;28;20082;-68
2023/07/16 10:50:12;;;;;;;10.13;3.83;;;25.90;99.90;;;;;;5053040;28;20113;-68
2023/07/16 10:52:38;;;;;;;8.48;4.30;;;25.90;1.00;;;;;;5053155;28;20068;-68
2023/07/16 10:55:04;;;;;;;9.15;4.30;;;;;;;;;;5053182;28;20061;-67
2023/07/16 10:57:30;;;;;;;6.57;4.20;;;;;;;;;;5052728;28;20039;-67
2023/07/16 10:59:57;;;;;;;6.72;3.65;;;;;;;;;;5053139;28;20103;-68
2023/07/16 11:02:23;;;;;;;7.13;3.88;;;;;;;;;;5052970;28;20505;-68
2023/07/16 11:04:50;;;;;;;8.52;3.65;;;;;;;;;;5053062;28;20107;-68
2023/07/16 11:07:16;;;;;;;6.72;3.72;;;;;;;;;;5052857;28;20025;-68
2023/07/16 11:09:43;;;;;;;7.30;3.78;;;;;;;;;;5052963;28;20025;-67
2023/07/16 11:12:09;;;;;;;4.82;3.17;;;;;;;;;;5052823;28;20510;-68
2023/07/16 11:14:36;;;;;;;5.93;3.97;;;;;;;;;;5052816;28;20501;-68
2023/07/16 11:17:07;;;;;;;10.18;4.00;;;;;;;;;;5052699;28;20360;-67
2023/07/16 11:19:34;;;;;;;7.75;3.80;;;;;;;;;;5052788;28;20025;-68
2023/07/16 11:22:01;;;;;;;5.50;3.90;;;;;;;;;;5052760;28;20068;-68
2023/07/16 11:24:27;;;;;;;6.93;3.92;;;;;;;;;;5052918;28;20033;-68
2023/07/16 11:26:56;;;;;;;8.00;4.03;;;;;;;;;;5052913;28;20029;-68
2023/07/16 11:29:23;;;;;;;6.00;3.83;;;;;;;;;;5052873;28;20020;-68
2023/07/16 11:31:51;;;;;;;8.57;3.88;;;;;;;;;;5052739;28;20435;-68
2023/07/16 11:34:17;;;;;;;5.57;3.80;;;;;;;;;;5052882;28;20021;-68
2023/07/16 11:36:43;;;;;;;7.10;4.30;;;;;;;;;;5052561;28;20107;-67
2023/07/16 11:39:11;;;;;;;8.25;3.67;;;;;;;;;;5052465;28;20029;-68
2023/07/16 11:41:38;;;;;;;4.70;3.83;;;;;;;;;;5055384;28;20021;-67
2023/07/16 11:44:07;;;;;;;7.72;3.90;;;;;;;;;;5056451;28;20025;-68
2023/07/16 11:46:33;;;;;;;8.52;3.78;;;;;;;;;;5056496;28;20021;-68
2023/07/16 11:49:00;;;;;;;6.03;3.72;;;;;;;;;;5056340;28;20025;-68
2023/07/16 11:51:26;;;;;;;7.18;3.55;;;;;;;;;;5056484;28;20028;-68
2023/07/16 11:53:52;;;;;;;5.78;3.28;;;;;;;;;;5056279;28;20029;-67
2023/07/16 11:56:18;;;;;;;5.60;3.42;;;;;;;;;;5056055;28;20024;-67
2023/07/16 11:58:44;;;;;;;4.25;3.15;;;;;;;;;;5055861;28;20113;-67
2023/07/16 12:01:10;;;;;;;4.65;3.10;;;;;;;;;;5055923;28;20104;-68
2023/07/16 12:03:36;;;;;;;8.18;3.60;;;;;;;;;;5056053;28;20029;-67
2023/07/16 12:06:02;;;;;;;3.80;3.03;;;;;;;;;;5056092;28;20090;-68
2023/07/16 12:08:29;;;;;;;6.28;3.30;;;;;;;;;;5055953;28;20056;-67
2023/07/16 12:10:55;;;;;;;5.95;3.15;;;;;;;;;;5055999;28;20033;-67
2023/07/16 12:13:21;;;;;;;4.40;3.13;;;;;;;;;;5055775;28;20029;-68
2023/07/16 12:15:47;;;;;;;5.13;3.17;;;;;;;;;;5055781;28;20037;-68
2023/07/16 12:18:13;;;;;;;6.45;3.03;;;;;;;;;;5055687;28;20033;-67
2023/07/16 12:20:39;;;;;;;9.18;3.75;;;;;;;;;;5055588;28;20029;-67
2023/07/16 12:23:05;;;;;;;7.72;3.85;;;;;;;;;;5055750;28;20025;-67
2023/07/16 12:25:31;;;;;;;5.55;3.28;;;;;;;;;;5055734;28;20123;-68
2023/07/16 12:27:57;;;;;;;5.40;3.20;;;;;;;;;;5055681;28;20040;-68
2023/07/16 12:30:24;;;;;;;7.22;3.50;;;;;;;;;;5055553;28;20029;-68
2023/07/16 12:32:50;;;;;;;5.43;3.83;;;;;;;;;;5055447;28;20033;-68
2023/07/16 12:35:16;;;;;;;5.72;3.50;;;;;;;;;;5055600;28;20037;-68
2023/07/16 12:37:42;;;;;;;5.03;3.25;;;;;;;;;;5054792;28;20049;-68
2023/07/16 12:40:12;;;;;;;6.57;3.47;;;;;;;;;;5055350;28;20033;-68
2023/07/16 12:42:38;;;;;;;7.22;4.00;;;;;;;;;;5055347;28;20028;-68
2023/07/16 12:45:04;;;;;;;6.22;3.92;;;;;;;;;;5055383;28;20436;-68
2023/07/16 12:47:30;;;;;;;5.78;3.70;;;;;;;;;;5055207;28;20044;-68
2023/07/16 12:49:56;;;;;;;5.95;3.53;;;;;;;;;;5055070;28;20435;-68
2023/07/16 12:52:22;;;;;;;8.40;3.63;;;;;;;;;;5055050;28;20087;-68
2023/07/16 12:54:48;;;;;;;5.80;4.22;;;;;;;;;;5055087;28;20041;-67
2023/07/16 12:57:14;;;;;;;6.65;3.85;;;;;;;;;;5054542;28;20120;-68
2023/07/16 12:59:39;;;;;;;6.50;3.90;;;;;;;;;;5055021;28;20029;-68